Time;durP1;ratioP1;P1;durP2;ratioP2;P2;SDS_P1;SDS_P2;PMS_P1;PMS_P2;Temp;Humidity;BMP_temperature;BMP_pressure;BME280_temperature;BME280_humidity;BME280_pressure;Samples;Min_cycle;Max_cycle;Signal;HPM_P1;HPM_P2
2023/06/05 00:01:54;;;;;;;4.95;2.15;;;;;;;;;;4940654;28;20407;-81
2023/06/05 00:04:20;;;;;;;4.63;2.20;;;;;;;;;;4956917;28;20081;-81
2023/06/05 00:06:46;;;;;;;5.57;2.30;;;;;;;;;;4957027;28;20027;-80
2023/06/05 00:09:13;;;;;;;4.25;1.83;;;;;;;;;;4940963;28;20459;-81
2023/06/05 00:11:39;;;;;;;8.07;2.55;;;;;;;;;;4956740;28;20031;-82
2023/06/05 00:14:05;;;;;;;5.25;2.22;;;;;;;;;;4973729;28;20050;-80
2023/06/05 00:16:31;;;;;;;6.63;1.73;;;;;;;;;;4973775;28;20042;-81
2023/06/05 00:18:56;;;;;;;5.05;2.30;;;;;;;;;;4956332;28;20031;-80
2023/06/05 00:21:23;;;;;;;3.85;1.85;;;;;;;;;;4924650;28;20043;-81
2023/06/05 00:23:48;;;;;;;3.63;1.70;;;;;;;;;;4956368;28;20054;-81
2023/06/05 00:26:14;;;;;;;3.85;1.70;;;;;;;;;;4956373;28;20455;-81
2023/06/05 00:28:39;;;;;;;3.60;1.45;;;;;;;;;;4940270;28;20134;-80
2023/06/05 00:31:06;;;;;;;4.47;1.88;;;;;;;;;;4956311;28;20065;-81
2023/06/05 00:33:31;;;;;;;5.03;1.80;;;;;;;;;;4940502;28;20532;-82
2023/06/05 00:35:57;;;;;;;4.63;1.88;;;;;;;;;;4956474;28;20035;-81
2023/06/05 00:38:24;;;;;;;4.20;1.90;;;;;;;;;;4973429;28;20027;-81
2023/06/05 00:40:50;;;;;;;3.58;1.58;;;;;;;;;;4956219;28;20041;-80
2023/06/05 00:43:17;;;;;;;4.50;1.60;;;;;;;;;;4940496;28;20554;-80
2023/06/05 00:45:43;;;;;;;4.68;1.63;;;;;;;;;;4940020;28;20097;-81
2023/06/05 00:48:08;;;;;;;3.13;1.40;;;;;;;;;;4973459;28;20467;-80
2023/06/05 00:50:34;;;;;;;7.78;1.80;;;;;;;;;;4973044;28;20031;-80
2023/06/05 00:53:03;;;;;;;5.32;1.80;;;;;;;;;;4955473;28;20381;-80
2023/06/05 00:55:30;;;;;;;3.15;1.52;;;;;;;;;;4955981;28;20480;-80
2023/06/05 00:57:56;;;;;;;4.75;1.67;;;;;;;;;;4940263;28;20045;-81
2023/06/05 01:00:23;;;;;;;3.65;1.48;;;;;;;;;;4940891;28;20082;-81
2023/06/05 01:02:53;;;;;;;3.72;1.45;;;;;;;;;;4924625;28;20538;-81
2023/06/05 01:05:19;;;;;;;3.30;1.40;;;;;;;;;;4956508;28;20039;-81
2023/06/05 01:07:48;;;;;;;4.38;1.45;;;;;;;;;;4956472;28;20031;-80
2023/06/05 01:10:13;;;;;;;3.47;1.50;;;;;;;;;;4924318;28;20027;-80
2023/06/05 01:12:45;;;;;;;4.05;1.98;;;;;;;;;;4972764;28;20030;-80
2023/06/05 01:15:11;;;;;;;3.78;1.58;;;;;;;;;;4955547;28;20039;-81
2023/06/05 01:17:37;;;;;;;4.07;1.50;;;;;;;;;;4972959;28;20035;-80
2023/06/05 01:20:04;;;;;;;4.05;1.60;;;;;;;;;;4939883;28;20038;-80
2023/06/05 01:22:30;;;;;;;3.92;1.65;;;;;;;;;;4972804;28;20444;-81
2023/06/05 01:24:57;;;;;;;3.47;1.55;;;;;;;;;;4955540;28;20067;-81
2023/06/05 01:27:27;;;;;;;6.00;1.60;;;;;;;;;;4955474;28;20078;-80
2023/06/05 01:30:00;;;;;;;5.70;1.80;;;;;;;;;;4939668;28;20038;-80
2023/06/05 01:32:36;;;;;;;6.10;1.60;;;;;;;;;;4939495;28;20023;-82
2023/06/05 01:35:07;;;;;;;3.50;1.58;;;;;;;;;;4955435;28;20034;-81
2023/06/05 01:37:40;;;;;;;5.18;1.80;;;;;;;;;;4955906;28;20058;-81
2023/06/05 01:40:14;;;;;;;6.28;1.70;;;;;;;;;;4955557;28;20476;-80
2023/06/05 01:42:40;;;;;;;2.90;1.50;;;;;;;;;;4972644;28;20038;-80
2023/06/05 01:45:07;;;;;;;2.95;1.52;;;;;;;;;;4955430;28;20038;-79
2023/06/05 01:47:34;;;;;;;4.53;1.48;;;;;;;;;;4972723;28;20046;-80
2023/06/05 01:50:00;;;;;;;3.60;1.67;;;;;;;;;;4972778;28;20023;-80
2023/06/05 01:52:25;;;;;;;4.47;1.70;;;;;;;;;;4955483;28;20095;-81
2023/06/05 01:54:52;;;;;;;4.13;1.75;;;;;;;;;;4972571;28;20436;-81
2023/06/05 01:57:18;;;;;;;4.13;2.00;;;;;;;;;;4955501;28;20035;-81
2023/06/05 01:59:45;;;;;;;4.30;1.85;;;;;;;;;;4940671;28;20030;-80
2023/06/05 02:02:11;;;;;;;4.47;1.95;;;;;;;;;;4974317;28;20061;-81
2023/06/05 02:04:37;;;;;;;5.55;1.60;;;;;;;;;;4960887;28;20031;-79
2023/06/05 02:07:05;;;;;;;3.60;1.90;;;;;;;;;;4960529;28;20038;-79
2023/06/05 02:09:32;;;;;;;5.03;1.98;;;;;;;;;;4961268;28;20026;-79
2023/06/05 02:12:03;;;;;;;6.45;2.30;;;;;;;;;;4944425;28;20035;-80
2023/06/05 02:14:32;;;;;;;3.95;1.95;;;;;;;;;;4961137;28;20026;-80
2023/06/05 02:16:58;;;;;;;5.47;2.33;;;;;;;;;;4961028;28;20248;-80
2023/06/05 02:19:24;;;;;;;4.18;2.08;;;;;;;;;;4978594;28;20476;-79
2023/06/05 02:21:51;;;;;;;4.70;2.13;;;;;;;;;;4961213;28;20041;-81
2023/06/05 02:24:18;;;;;;;4.30;1.92;;;;;;;;;;4978922;28;20046;-80
2023/06/05 02:26:44;;;;;;;3.22;1.52;;;;;;;;;;4945351;28;20411;-82
2023/06/05 02:29:09;;;;;;;3.72;2.28;;;;;;;;;;4959833;28;20097;-81
2023/06/05 02:31:36;;;;;;;4.65;1.80;;;;;;;;;;4943732;28;20101;-79
2023/06/05 02:34:02;;;;;;;4.07;1.48;;;;;;;;;;4984108;28;20063;-80
2023/06/05 02:36:32;;;;;;;5.35;2.03;;;;;;;;;;4990168;28;20034;-80
2023/06/05 02:38:59;;;;;;;3.70;1.67;;;;;;;;;;4972828;28;20027;-81
2023/06/05 02:41:26;;;;;;;6.90;3.08;;;;;;;;;;4975765;28;20048;-82
2023/06/05 02:43:53;;;;;;;6.18;2.63;;;;;;;;;;4974250;28;20027;-82
2023/06/05 02:46:18;;;;;;;3.90;1.85;;;;;;;;;;4956621;28;20045;-81
2023/06/05 02:48:45;;;;;;;5.32;2.00;;;;;;;;;;4939093;28;20038;-80
2023/06/05 02:51:11;;;;;;;4.72;1.95;;;;;;;;;;4972997;28;20435;-81
2023/06/05 02:53:38;;;;;;;4.97;1.90;;;;;;;;;;4952341;28;20026;-81
2023/06/05 02:56:04;;;;;;;14.55;7.38;;;;;;;;;;4943554;28;20447;-82
2023/06/05 02:58:33;;;;;;;9.48;5.05;;;;;;;;;;4942278;28;20058;-82
2023/06/05 03:01:01;;;;;;;11.13;1.90;;;;;;;;;;4941906;28;20562;-81
2023/06/05 03:03:31;;;;;;;5.97;2.40;;;;;;;;;;4957936;28;20089;-81
2023/06/05 03:06:04;;;;;;;6.95;2.83;;;;;;;;;;4957784;28;20035;-82
2023/06/05 03:08:33;;;;;;;4.13;2.22;;;;;;;;;;4941843;28;20039;-81
2023/06/05 03:10:59;;;;;;;6.03;2.28;;;;;;;;;;4941736;28;20113;-82
2023/06/05 03:13:28;;;;;;;8.65;3.90;;;;;;;;;;4957842;28;20174;-81
2023/06/05 03:15:56;;;;;;;7.35;2.45;;;;;;;;;;4956839;28;20066;-82
2023/06/05 03:18:24;;;;;;;4.00;2.03;;;;;;;;;;4957750;28;20510;-82
2023/06/05 03:20:51;;;;;;;5.03;2.53;;;;;;;;;;4974869;28;20038;-81
2023/06/05 03:23:16;;;;;;;7.78;2.10;;;;;;;;;;4957657;28;20452;-81
2023/06/05 03:25:42;;;;;;;6.75;2.40;;;;;;;;;;4925763;28;20051;-81
2023/06/05 03:28:08;;;;;;;6.57;2.50;;;;;;;;;;4957570;28;20027;-83
2023/06/05 03:30:34;;;;;;;7.85;2.30;;;;;;;;;;4941514;28;20035;-82
2023/06/05 03:33:01;;;;;;;8.48;2.65;;;;;;;;;;4941715;28;20031;-82
2023/06/05 03:35:28;;;;;;;4.80;1.95;;;;;;;;;;4925949;28;20042;-82
2023/06/05 03:37:59;;;;;;;7.63;3.13;;;;;;;;;;4957555;28;20105;-83
2023/06/05 03:40:24;;;;;;;6.03;2.58;;;;;;;;;;4957446;28;20530;-82
2023/06/05 03:42:51;;;;;;;10.45;2.35;;;;;;;;;;4956968;28;20543;-81
2023/06/05 03:45:18;;;;;;;5.35;2.05;;;;;;;;;;4957225;28;20042;-81
2023/06/05 03:47:46;;;;;;;4.55;2.10;;;;;;;;;;4974611;28;20026;-81
2023/06/05 03:50:12;;;;;;;5.82;2.38;;;;;;;;;;4957166;28;20090;-82
2023/06/05 03:52:41;;;;;;;7.57;2.05;;;;;;;;;;4957015;28;20542;-82
2023/06/05 03:55:09;;;;;;;7.28;2.30;;;;;;;;;;4941108;28;20031;-82
2023/06/05 03:57:37;;;;;;;9.02;2.33;;;;;;;;;;4940872;28;20562;-82
2023/06/05 04:00:09;;;;;;;7.72;3.13;;;;;;;;;;4956898;28;20496;-81
2023/06/05 04:02:38;;;;;;;4.30;1.75;;;;;;;;;;4974088;28;20039;-82
2023/06/05 04:05:05;;;;;;;10.98;2.13;;;;;;;;;;4957015;28;20066;-82
2023/06/05 04:07:31;;;;;;;7.55;2.90;;;;;;;;;;4973934;28;20031;-81
2023/06/05 04:09:57;;;;;;;6.22;2.30;;;;;;;;;;4956817;28;20030;-81
2023/06/05 04:12:23;;;;;;;8.73;2.88;;;;;;;;;;4924838;28;20117;-82
2023/06/05 04:14:48;;;;;;;12.70;4.43;;;;;;;;;;4940816;28;20056;-82
2023/06/05 04:17:14;;;;;;;7.05;2.92;;;;;;;;;;4941022;28;20031;-82
2023/06/05 04:19:40;;;;;;;6.93;2.50;;;;;;;;;;4956874;28;20094;-81
2023/06/05 04:22:06;;;;;;;6.80;2.53;;;;;;;;;;4973716;28;20062;-81
2023/06/05 04:24:32;;;;;;;7.10;2.20;;;;;;;;;;4940560;28;20038;-80
2023/06/05 04:27:02;;;;;;;5.75;2.20;;;;;;;;;;4940621;28;20476;-80
2023/06/05 04:29:28;;;;;;;6.57;2.30;;;;;;;;;;4940285;28;20097;-80
2023/06/05 04:31:54;;;;;;;4.38;2.35;;;;;;;;;;4973209;28;20451;-82
2023/06/05 04:34:20;;;;;;;9.73;3.83;;;;;;;;;;4924530;28;20039;-81
2023/06/05 04:36:49;;;;;;;11.07;2.63;;;;;;;;;;4939962;28;20514;-81
2023/06/05 04:39:15;;;;;;;6.60;2.35;;;;;;;;;;4955692;28;20027;-82
2023/06/05 04:41:45;;;;;;;8.57;2.85;;;;;;;;;;4955622;28;20030;-81
2023/06/05 04:44:13;;;;;;;6.72;2.30;;;;;;;;;;4955787;28;20122;-80
2023/06/05 04:46:39;;;;;;;13.15;4.53;;;;;;;;;;4955650;28;20077;-80
2023/06/05 04:49:09;;;;;;;8.85;3.80;;;;;;;;;;4939825;28;20085;-81
2023/06/05 04:51:36;;;;;;;5.63;2.38;;;;;;;;;;4955594;28;20093;-79
2023/06/05 04:54:03;;;;;;;4.88;2.30;;;;;;;;;;4972854;28;20499;-81
2023/06/05 04:56:29;;;;;;;7.53;2.20;;;;;;;;;;4972950;28;20035;-79
2023/06/05 04:58:55;;;;;;;5.53;2.65;;;;;;;;;;4940338;28;20079;-82
2023/06/05 05:01:21;;;;;;;5.20;2.03;;;;;;;;;;4956120;28;20105;-79
2023/06/05 05:03:48;;;;;;;4.63;2.22;;;;;;;;;;4956438;28;20047;-80
2023/06/05 05:06:14;;;;;;;6.53;3.28;;;;;;;;;;4940395;28;20046;-79
2023/06/05 05:08:40;;;;;;;9.65;3.08;;;;;;;;;;4955886;28;20034;-79
2023/06/05 05:11:12;;;;;;;9.70;2.40;;;;;;;;;;4940350;28;20468;-79
2023/06/05 05:13:39;;;;;;;4.45;2.15;;;;;;;;;;4956297;28;20039;-79
2023/06/05 05:16:04;;;;;;;9.93;1.98;;;;;;;;;;4972295;23;20057;-77
2023/06/05 05:18:30;;;;;;;3.80;2.00;;;;;;;;;;4954798;28;20046;-78
2023/06/05 05:20:56;;;;;;;11.60;2.08;;;;;;;;;;4938296;28;20041;-78
2023/06/05 05:23:21;;;;;;;6.30;2.20;;;;;;;;;;4973790;28;20027;-78
2023/06/05 05:25:47;;;;;;;7.38;2.10;;;;;;;;;;4956818;28;20464;-78
2023/06/05 05:28:13;;;;;;;6.95;2.75;;;;;;;;;;4942018;28;20055;-78
2023/06/05 05:30:40;;;;;;;9.90;4.00;;;;;;;;;;4941204;28;20031;-79
2023/06/05 05:33:06;;;;;;;8.15;2.50;;;;;;;;;;4956513;28;20491;-78
2023/06/05 05:35:31;;;;;;;7.25;2.33;;;;;;;;;;4956037;28;20039;-78
2023/06/05 05:37:58;;;;;;;7.72;2.50;;;;;;;;;;4940911;28;20031;-79
2023/06/05 05:40:24;;;;;;;7.50;2.33;;;;;;;;;;4959212;28;20085;-77
2023/06/05 05:42:50;;;;;;;10.07;3.13;;;;;;;;;;4943393;28;20380;-78
2023/06/05 05:45:15;;;;;;;10.23;2.60;;;;;;;;;;4976319;28;20128;-77
2023/06/05 05:47:41;;;;;;;11.13;3.17;;;;;;;;;;4958924;28;20101;-77
2023/06/05 05:50:07;;;;;;;11.88;2.25;;;;;;;;;;4976314;28;20027;-77
2023/06/05 05:52:32;;;;;;;7.88;2.30;;;;;;;;;;4958688;28;20053;-79
2023/06/05 05:55:03;;;;;;;7.22;2.35;;;;;;;;;;4976144;28;20045;-79
2023/06/05 05:57:29;;;;;;;11.32;3.10;;;;;;;;;;4958763;28;20077;-78
2023/06/05 05:59:55;;;;;;;10.55;2.38;;;;;;;;;;4976098;28;20034;-77
2023/06/05 06:02:21;;;;;;;8.32;2.35;;;;;;;;;;4926856;28;20045;-79
2023/06/05 06:04:47;;;;;;;4.85;1.85;;;;;;;;;;4976121;28;20471;-78
2023/06/05 06:07:12;;;;;;;6.53;2.25;;;;;;;;;;4975934;28;20610;-78
2023/06/05 06:09:39;;;;;;;6.65;2.38;;;;;;;;;;4958740;28;20098;-79
2023/06/05 06:12:07;;;;;;;9.60;2.55;;;;;;;;;;4942754;28;20039;-80
2023/06/05 06:14:35;;;;;;;8.85;2.30;;;;;;;;;;4959161;28;20027;-79
2023/06/05 06:17:02;;;;;;;9.52;2.60;;;;;;;;;;4942641;28;20101;-78
2023/06/05 06:19:28;;;;;;;3.63;1.85;;;;;;;;;;4958493;28;20483;-80
2023/06/05 06:21:55;;;;;;;6.03;2.40;;;;;;;;;;4958228;28;20063;-80
2023/06/05 06:24:27;;;;;;;4.53;1.70;;;;;;;;;;4944137;28;20035;-79
2023/06/05 06:26:55;;;;;;;7.70;2.47;;;;;;;;;;4942519;28;20041;-79
2023/06/05 06:29:22;;;;;;;5.93;2.53;;;;;;;;;;4975535;28;20088;-78
2023/06/05 06:31:49;;;;;;;6.80;1.85;;;;;;;;;;4975395;28;20035;-79
2023/06/05 06:34:14;;;;;;;4.35;1.90;;;;;;;;;;4942064;28;20098;-80
2023/06/05 06:36:40;;;;;;;6.30;2.50;;;;;;;;;;4958311;28;20114;-79
2023/06/05 06:39:07;;;;;;;6.65;2.10;;;;;;;;;;4957973;28;20035;-79
2023/06/05 06:41:34;;;;;;;5.85;2.08;;;;;;;;;;4957989;28;20070;-79
2023/06/05 06:44:03;;;;;;;8.68;2.80;;;;;;;;;;4958445;28;20077;-78
2023/06/05 06:46:30;;;;;;;5.88;1.90;;;;;;;;;;4960817;28;20109;-78
2023/06/05 06:48:55;;;;;;;5.90;2.13;;;;;;;;;;4974810;28;20496;-79
2023/06/05 06:51:24;;;;;;;12.02;2.50;;;;;;;;;;4975107;28;20047;-78
2023/06/05 06:53:50;;;;;;;8.13;2.47;;;;;;;;;;4963292;28;20038;-82
2023/06/05 06:56:17;;;;;;;9.23;2.30;;;;;;;;;;4970472;28;20034;-81
2023/06/05 06:58:43;;;;;;;6.93;2.17;;;;;;;;;;4986910;28;20037;-85
2023/06/05 07:01:11;;;;;;;3.83;1.85;;;;;;;;;;4989831;28;20057;-81
2023/06/05 07:03:36;;;;;;;4.57;2.10;;;;;;;;;;5003022;28;20034;-83
2023/06/05 07:06:02;;;;;;;33.08;17.60;;;;;;;;;;4996076;28;20077;-84
2023/06/05 07:08:27;;;;;;;10.88;3.20;;;;;;;;;;4952467;28;20479;-82
2023/06/05 07:10:56;;;;;;;6.07;3.05;;;;;;;;;;4944915;29;20103;-85
2023/06/05 07:13:22;;;;;;;9.23;3.22;;;;;;;;;;4947328;28;20090;-85
2023/06/05 07:15:55;;;;;;;9.90;2.60;;;;;;;;;;4955272;29;20042;-86
2023/06/05 07:18:21;;;;;;;5.78;3.15;;;;;;;;;;4952239;28;20018;-85
2023/06/05 07:20:47;;;;;;;9.25;4.80;;;;;;;;;;4956989;28;20023;-85
2023/06/05 07:23:14;;;;;;;7.72;3.13;;;;;;;;;;4941924;28;20397;-86
2023/06/05 07:25:40;;;;;;;7.15;3.35;;;;;;;;;;4948240;28;20519;-85
2023/06/05 07:28:11;;;;;;;8.15;2.85;;;;;;;;;;4948724;28;20039;-83
2023/06/05 07:30:37;;;;;;;7.15;2.97;;;;;;;;;;4954446;28;20077;-84
2023/06/05 07:33:03;;;;;;;6.25;2.67;;;;;;;;;;4948999;28;20118;-83
2023/06/05 07:35:29;;;;;;;4.47;2.22;;;;;;;;;;4942214;28;20567;-84
2023/06/05 07:37:54;;;;;;;5.53;2.50;;;;;;;;;;4929530;28;20134;-82
2023/06/05 07:40:20;;;;;;;6.43;2.88;;;;;;;;;;4969076;28;20038;-84
2023/06/05 07:42:46;;;;;;;5.68;2.90;;;;;;;;;;4951564;28;20395;-84
2023/06/05 07:45:11;;;;;;;4.13;2.60;;;;;;;;;;4938393;29;20041;-84
2023/06/05 07:47:40;;;;;;;14.05;3.70;;;;;;;;;;4940936;28;20065;-83
2023/06/05 07:50:06;;;;;;;13.77;3.42;;;;;;;;;;4958341;28;20031;-85
2023/06/05 07:52:32;;;;;;;7.68;3.22;;;;;;;;;;4945435;28;20027;-84
2023/06/05 07:54:58;;;;;;;10.13;3.33;;;;;;;;;;4927796;28;20033;-85
2023/06/05 07:57:24;;;;;;;8.55;2.20;;;;;;;;;;4956914;28;20023;-78
2023/06/05 07:59:50;;;;;;;4.32;2.03;;;;;;;;;;4943004;28;20034;-77
2023/06/05 08:02:19;;;;;;;6.20;2.33;;;;;;;;;;4959226;28;20038;-79
2023/06/05 08:04:44;;;;;;;5.03;2.25;;;;;;;;;;4956982;28;20162;-79
2023/06/05 08:07:10;;;;;;;5.07;1.70;;;;;;;;;;4971035;28;20062;-80
2023/06/05 08:09:36;;;;;;;7.10;2.20;;;;;;;;;;4943938;28;20689;-77
2023/06/05 08:12:02;;;;;;;3.72;1.98;;;;;;;;;;4988866;28;20027;-78
2023/06/05 08:14:28;;;;;;;6.28;2.13;;;;;;;;;;4978071;28;20399;-79
2023/06/05 08:16:55;;;;;;;6.20;1.77;;;;;;;;;;4957543;28;20045;-78
2023/06/05 08:19:21;;;;;;;4.43;1.73;;;;;;;;;;4972104;28;20045;-79
2023/06/05 08:21:46;;;;;;;11.00;2.50;;;;;;;;;;4976795;28;20109;-80
2023/06/05 08:24:12;;;;;;;3.85;1.90;;;;;;;;;;4962037;28;20407;-79
2023/06/05 08:26:37;;;;;;;5.47;1.90;;;;;;;;;;4950982;28;20030;-78
2023/06/05 08:29:03;;;;;;;7.75;2.10;;;;;;;;;;4987546;28;20022;-78
2023/06/05 08:31:29;;;;;;;3.35;1.60;;;;;;;;;;4960101;28;20090;-77
2023/06/05 08:33:55;;;;;;;8.65;1.90;;;;;;;;;;4989078;28;20038;-78
2023/06/05 08:36:21;;;;;;;7.75;2.00;;;;;;;;;;4963841;28;20487;-76
2023/06/05 08:38:46;;;;;;;4.63;1.67;;;;;;;;;;4992716;28;20499;-79
2023/06/05 08:41:13;;;;;;;7.03;1.80;;;;;;;;;;4961223;28;20074;-78
2023/06/05 08:43:41;;;;;;;5.28;1.60;;;;;;;;;;4971653;28;20038;-79
2023/06/05 08:46:08;;;;;;;3.67;1.55;;;;;;;;;;4979439;28;20113;-79
2023/06/05 08:48:37;;;;;;;6.40;2.00;;;;;;;;;;4982741;28;20026;-79
2023/06/05 08:51:03;;;;;;;6.63;1.77;;;;;;;;;;4986180;28;20340;-77
2023/06/05 08:53:34;;;;;;;2.58;1.30;;;;;;;;;;4974817;28;20417;-80
2023/06/05 08:56:01;;;;;;;7.55;1.90;;;;;;;;;;4968650;28;20018;-79
2023/06/05 08:58:26;;;;;;;4.22;1.60;;;;;;;;;;4975676;28;20492;-78
2023/06/05 09:00:53;;;;;;;5.85;2.15;;;;;;;;;;4984262;28;20037;-77
2023/06/05 09:03:20;;;;;;;10.82;2.30;;;;;;;;;;4959659;28;20035;-80
2023/06/05 09:05:48;;;;;;;5.68;1.40;;;;;;;;;;4954589;28;20035;-77
2023/06/05 09:08:13;;;;;;;;;;;;;;;;;;4954132;28;20027;-78
2023/06/05 09:10:39;;;;;;;7.82;1.92;;;;;;;;;;4961216;28;19969;-80
2023/06/05 09:13:05;;;;;;;7.30;1.77;;;;;;;;;;4956890;28;20111;-78
2023/06/05 09:15:31;;;;;;;10.70;2.40;;;;;;;;;;4985177;28;20030;-80
2023/06/05 09:18:05;;;;;;;3.90;1.60;;;;;;;;;;4960335;28;20052;-78
2023/06/05 09:20:34;;;;;;;3.00;1.30;;;;;;;;;;4949786;28;20023;-79
2023/06/05 09:23:04;;;;;;;7.80;2.22;;;;;;;;;;4967766;28;20037;-78
2023/06/05 09:25:43;;;;;;;695.63;481.83;;;;;;;;;;4966270;28;20034;-80
2023/06/05 09:28:09;;;;;;;43.92;25.60;;;;;;;;;;4971879;28;20121;-88
2023/06/05 09:30:52;;;;;;;11.45;6.22;;;;;;;;;;4950133;28;20155;-86
2023/06/05 09:33:19;;;;;;;19.33;11.60;;;;;;;;;;4928666;28;20031;-88
2023/06/05 09:35:44;;;;;;;13.63;6.40;;;;;;;;;;4955793;28;20072;-86
2023/06/05 09:38:27;;;;;;;11.35;6.05;;;;;;;;;;4929949;28;20034;-86
2023/06/05 09:41:00;;;;;;;13.18;4.47;;;;;;;;;;4936716;29;20504;-86
2023/06/05 09:43:28;;;;;;;9.68;4.55;;;;;;;;;;4953457;28;20038;-84
2023/06/05 09:45:54;;;;;;;9.98;5.47;;;;;;;;;;4977134;28;20029;-84
2023/06/05 09:48:20;;;;;;;11.52;5.97;;;;;;;;;;4970459;28;20094;-85
2023/06/05 09:50:45;;;;;;;11.88;5.28;;;;;;;;;;4936064;28;20061;-85
2023/06/05 09:53:14;;;;;;;10.27;5.05;;;;;;;;;;4923803;29;20445;-83
2023/06/05 09:55:40;;;;;;;;;;;;;;;;;;4940007;28;20038;-84
2023/06/05 09:58:10;;;;;;;11.10;4.70;;;;;;;;;;4943445;28;19917;-85
2023/06/05 10:00:39;;;;;;;10.82;3.42;;;;;;;;;;4952686;28;20097;-85
2023/06/05 10:03:13;;;;;;;4.38;2.20;;;;;;;;;;4981930;28;20038;-86
2023/06/05 10:05:42;;;;;;;7.18;3.05;;;;;;;;;;4981893;28;20035;-84
2023/06/05 10:08:08;;;;;;;6.93;3.28;;;;;;;;;;4955735;28;20035;-84
2023/06/05 10:10:36;;;;;;;4.75;1.83;;;;;;;;;;4936201;28;20057;-79
2023/06/05 10:13:02;;;;;;;5.70;2.17;;;;;;;;;;4987361;28;20030;-79
2023/06/05 10:15:27;;;;;;;5.78;2.05;;;;;;;;;;4958777;28;20030;-79
2023/06/05 10:17:54;;;;;;;3.97;1.90;;;;;;;;;;4977232;28;20113;-79
2023/06/05 10:20:21;;;;;;;6.38;1.90;;;;;;;;;;4951792;28;20125;-80
2023/06/05 10:22:47;;;;;;;6.45;1.90;;;;;;;;;;4966628;28;20444;-79
2023/06/05 10:25:15;;;;;;;3.13;1.73;;;;;;;;;;4980845;28;20033;-78
2023/06/05 10:27:44;;;;;;;5.00;1.95;;;;;;;;;;4992634;28;20030;-80
2023/06/05 10:30:10;;;;;;;4.10;2.10;;;;;;;;;;4965376;28;20034;-79
2023/06/05 10:32:39;;;;;;;7.50;2.25;;;;;;;;;;4952955;28;20022;-79
2023/06/05 10:35:20;;;;;;;7.70;1.90;;;;;;;;;;4984807;28;20560;-79
2023/06/05 10:37:58;;;;;;;5.20;1.60;;;;;;;;;;4979266;28;20045;-80
2023/06/05 10:40:24;;;;;;;4.15;1.88;;;;;;;;;;4965420;28;20038;-79
2023/06/05 10:42:50;;;;;;;3.50;1.55;;;;;;;;;;4977156;28;20041;-79
2023/06/05 10:45:33;;;;;;;7.22;2.40;;;;;;;;;;4957832;28;20113;-79
2023/06/05 10:47:59;;;;;;;4.47;2.15;;;;;;;;;;4983821;28;20057;-79
2023/06/05 10:50:26;;;;;;;6.47;2.60;;;;;;;;;;4990936;28;20030;-80
2023/06/05 10:52:53;;;;;;;20.90;7.90;;;;;;;;;;4962369;28;20392;-82
2023/06/05 10:55:20;;;;;;;16.83;9.27;;;;;;;;;;4989231;28;20079;-82
2023/06/05 10:58:01;;;;;;;20.67;8.77;;;;;;;;;;4953500;28;20369;-81
2023/06/05 11:00:27;;;;;;;16.08;9.35;;;;;;;;;;4929018;29;20027;-82
2023/06/05 11:02:53;;;;;;;17.60;10.30;;;;;;;;;;4943971;28;20041;-82
2023/06/05 11:05:19;;;;;;;8.35;5.10;;;;;;;;;;4962262;28;20122;-81
2023/06/05 11:07:45;;;;;;;13.27;8.50;;;;;;;;;;4968534;28;20455;-82
2023/06/05 11:10:17;;;;;;;9.25;5.68;;;;;;;;;;4947238;28;20039;-78
2023/06/05 11:12:43;;;;;;;5.72;2.13;;;;;;;;;;4959011;28;20042;-79
2023/06/05 11:15:09;;;;;;;6.47;1.92;;;;;;;;;;5045296;22;20062;-79
2023/06/05 11:17:36;;;;;;;5.28;2.53;;;;;;;;;;4969773;28;20070;-80
2023/06/05 11:20:12;;;;;;;4.68;2.00;;;;;;;;;;4952783;28;20045;-80
2023/06/05 11:22:53;;;;;;;4.72;2.20;;;;;;;;;;4990187;28;20082;-82
2023/06/05 11:25:24;;;;;;;5.05;1.70;;;;;;;;;;4996713;28;20034;-79
2023/06/05 11:27:50;;;;;;;6.25;2.08;;;;;;;;;;4968156;28;20042;-81
2023/06/05 11:30:21;;;;;;;4.20;1.88;;;;;;;;;;4983765;28;20062;-82
2023/06/05 11:32:47;;;;;;;7.25;2.10;;;;;;;;;;4979276;28;20457;-82
2023/06/05 11:35:13;;;;;;;5.25;1.92;;;;;;;;;;4987049;28;20022;-82
2023/06/05 11:37:41;;;;;;;4.90;1.90;;;;;;;;;;4990783;28;20101;-82
2023/06/05 11:40:11;;;;;;;4.25;2.13;;;;;;;;;;4980460;28;20109;-79
2023/06/05 11:42:38;;;;;;;7.57;2.40;;;;;;;;;;4959919;28;20038;-82
2023/06/05 11:45:11;;;;;;;4.75;1.90;;;;;;;;;;4997555;28;20030;-81
2023/06/05 11:47:36;;;;;;;4.72;2.40;;;;;;;;;;4982214;28;20110;-81
2023/06/05 11:50:08;;;;;;;8.05;1.75;;;;;;;;;;4995335;28;20033;-82
2023/06/05 11:52:35;;;;;;;5.05;1.80;;;;;;;;;;5000612;28;20081;-80
2023/06/05 11:55:15;;;;;;;3.15;1.60;;;;;;;;;;4987008;28;20027;-82
2023/06/05 11:57:42;;;;;;;4.72;1.80;;;;;;;;;;4982595;28;20035;-82
2023/06/05 12:00:10;;;;;;;6.95;2.70;;;;;;;;;;4971809;28;20057;-82
2023/06/05 12:02:38;;;;;;;6.40;2.17;;;;;;;;;;4968790;28;20034;-82
2023/06/05 12:05:07;;;;;;;5.60;2.00;;;;;;;;;;4953768;28;20487;-82
2023/06/05 12:07:36;;;;;;;4.60;2.00;;;;;;;;;;4995024;28;20027;-83
2023/06/05 12:10:06;;;;;;;7.97;4.57;;;;;;;;;;4949091;28;20027;-82
2023/06/05 12:12:33;;;;;;;6.25;2.28;;;;;;;;;;4991505;28;20030;-81
2023/06/05 12:15:16;;;;;;;111.00;82.00;;;;;;;;;;4947053;28;20046;-86
2023/06/05 12:17:48;;;;;;;8.75;4.35;;;;;;;;;;4979545;28;20065;-85
2023/06/05 12:20:14;;;;;;;7.45;2.60;;;;;;;;;;4948813;28;20045;-87
2023/06/05 12:22:40;;;;;;;4.72;2.15;;;;;;;;;;4994511;28;20022;-87
2023/06/05 12:25:20;;;;;;;4.55;2.50;;;;;;;;;;4958284;28;20030;-86
2023/06/05 12:27:46;;;;;;;6.00;2.97;;;;;;;;;;4970729;28;20030;-86
2023/06/05 12:30:13;;;;;;;7.13;2.95;;;;;;;;;;4998153;28;20034;-85
2023/06/05 12:32:39;;;;;;;6.10;2.70;;;;;;;;;;4974863;28;20030;-85
2023/06/05 12:35:19;;;;;;;3.70;2.40;;;;;;;;;;4954795;28;20172;-85
2023/06/05 12:37:47;;;;;;;5.00;2.55;;;;;;;;;;4973164;28;20077;-87
2023/06/05 12:40:14;;;;;;;6.63;2.75;;;;;;;;;;4946050;28;20050;-86
2023/06/05 12:42:43;;;;;;;8.75;2.92;;;;;;;;;;4977745;28;20068;-86
2023/06/05 12:45:09;;;;;;;6.03;2.70;;;;;;;;;;4978962;28;20045;-86
2023/06/05 12:47:36;;;;;;;5.63;2.53;;;;;;;;;;4953874;28;20063;-86
2023/06/05 12:50:03;;;;;;;5.15;2.88;;;;;;;;;;4972129;28;20106;-86
2023/06/05 12:52:31;;;;;;;6.18;2.90;;;;;;;;;;4964027;28;20034;-85
2023/06/05 12:55:00;;;;;;;4.25;2.13;;;;;;;;;;4941013;29;20074;-87
2023/06/05 12:57:26;;;;;;;7.32;2.30;;;;;;;;;;4925320;29;20046;-86
2023/06/05 12:59:54;;;;;;;8.55;2.60;;;;;;;;;;4964072;28;20034;-87
2023/06/05 13:02:24;;;;;;;5.88;3.45;;;;;;;;;;4981452;28;20088;-87
2023/06/05 13:04:53;;;;;;;6.70;2.40;;;;;;;;;;4945950;28;20031;-86
2023/06/05 13:07:21;;;;;;;3.80;2.33;;;;;;;;;;4954153;28;20034;-85
2023/06/05 13:09:51;;;;;;;5.65;2.80;;;;;;;;;;4959103;28;20140;-88
2023/06/05 13:12:21;;;;;;;5.43;2.40;;;;;;;;;;4964206;28;20057;-87
2023/06/05 13:14:47;;;;;;;5.55;2.33;;;;;;;;;;4967842;28;20117;-85
2023/06/05 13:17:17;;;;;;;6.65;2.30;;;;;;;;;;4951032;28;20039;-87
2023/06/05 13:19:44;;;;;;;7.47;2.45;;;;;;;;;;4936126;28;20094;-86
2023/06/05 13:22:10;;;;;;;9.18;2.92;;;;;;;;;;4936061;28;20062;-87
2023/06/05 13:24:36;;;;;;;7.03;2.40;;;;;;;;;;4934107;28;20039;-87
2023/06/05 13:27:03;;;;;;;9.27;3.00;;;;;;;;;;4946319;28;20042;-85
2023/06/05 13:29:28;;;;;;;5.38;2.53;;;;;;;;;;4930959;28;20022;-87
2023/06/05 13:31:54;;;;;;;9.05;3.20;;;;;;;;;;4961170;28;20034;-85
2023/06/05 13:34:20;;;;;;;5.28;2.72;;;;;;;;;;4976800;28;20082;-88
2023/06/05 13:36:46;;;;;;;6.32;2.88;;;;;;;;;;4929219;28;20031;-88
2023/06/05 13:39:12;;;;;;;6.25;2.70;;;;;;;;;;4961929;28;20033;-88
2023/06/05 13:41:38;;;;;;;6.43;2.58;;;;;;;;;;4978679;28;20030;-87
2023/06/05 13:44:04;;;;;;;4.55;2.17;;;;;;;;;;4961753;28;20023;-86
2023/06/05 13:46:30;;;;;;;8.25;2.28;;;;;;;;;;4944330;28;20041;-88
2023/06/05 13:48:59;;;;;;;6.40;2.53;;;;;;;;;;4943933;28;20117;-88
2023/06/05 13:51:25;;;;;;;4.10;2.13;;;;;;;;;;4927597;28;20031;-87
2023/06/05 13:53:51;;;;;;;4.50;2.33;;;;;;;;;;4943645;28;20511;-86
2023/06/05 13:56:17;;;;;;;11.00;2.72;;;;;;;;;;4927387;28;20038;-86
2023/06/05 13:58:43;;;;;;;6.43;2.38;;;;;;;;;;4943102;28;20035;-86
2023/06/05 14:01:09;;;;;;;4.28;2.60;;;;;;;;;;4945130;28;20110;-86
2023/06/05 14:03:35;;;;;;;5.20;2.47;;;;;;;;;;4961135;28;20059;-86
2023/06/05 14:06:01;;;;;;;6.32;2.55;;;;;;;;;;4978576;28;20074;-86
2023/06/05 14:08:28;;;;;;;5.60;2.72;;;;;;;;;;4962602;28;20035;-87
2023/06/05 14:10:54;;;;;;;8.75;2.72;;;;;;;;;;4981159;28;20354;-86
2023/06/05 14:13:20;;;;;;;6.68;2.55;;;;;;;;;;4981688;28;20022;-86
2023/06/05 14:15:45;;;;;;;5.50;2.67;;;;;;;;;;4989067;28;20061;-86
2023/06/05 14:18:14;;;;;;;4.90;2.42;;;;;;;;;;4985847;28;20388;-87
2023/06/05 14:20:40;;;;;;;4.13;2.15;;;;;;;;;;4979653;28;20034;-86
2023/06/05 14:23:06;;;;;;;5.15;2.25;;;;;;;;;;4959371;29;20420;-86
2023/06/05 14:25:32;;;;;;;6.35;2.35;;;;;;;;;;4961889;28;20117;-86
2023/06/05 14:27:57;;;;;;;4.97;2.85;;;;;;;;;;4975799;28;20081;-85
2023/06/05 14:30:23;;;;;;;4.80;2.13;;;;;;;;;;4979781;28;20034;-87
2023/06/05 14:32:49;;;;;;;4.13;2.50;;;;;;;;;;4952105;28;20031;-87
2023/06/05 14:35:16;;;;;;;5.25;2.50;;;;;;;;;;4960778;28;20027;-85
2023/06/05 14:37:43;;;;;;;4.20;2.58;;;;;;;;;;4951416;28;20039;-85
2023/06/05 14:40:11;;;;;;;3.40;1.92;;;;;;;;;;4959961;28;20042;-86
2023/06/05 14:42:38;;;;;;;4.72;2.47;;;;;;;;;;4965351;28;20039;-86